sensor_id;sensor_type;location;lat;lon;timestamp;pressure;altitude;pressure_sealevel;temperature
19196;BMP280;9730;48.926;11.376;2022-12-07T00:01:33;97228.28;;;2.95
19196;BMP280;9730;48.926;11.376;2022-12-07T00:04:03;97228.94;;;3.02
19196;BMP280;9730;48.926;11.376;2022-12-07T00:06:31;97224.88;;;2.99
19196;BMP280;9730;48.926;11.376;2022-12-07T00:08:58;97237.72;;;2.80
19196;BMP280;9730;48.926;11.376;2022-12-07T00:11:25;97239.81;;;2.99
19196;BMP280;9730;48.926;11.376;2022-12-07T00:13:53;97241.44;;;3.00
19196;BMP280;9730;48.926;11.376;2022-12-07T00:16:21;97248.69;;;3.11
19196;BMP280;9730;48.926;11.376;2022-12-07T00:18:48;97244.56;;;3.10
19196;BMP280;9730;48.926;11.376;2022-12-07T00:21:18;97251.81;;;3.20
19196;BMP280;9730;48.926;11.376;2022-12-07T00:23:46;97252.78;;;3.15
19196;BMP280;9730;48.926;11.376;2022-12-07T00:26:14;97252.00;;;3.11
19196;BMP280;9730;48.926;11.376;2022-12-07T00:28:44;97241.97;;;3.14
19196;BMP280;9730;48.926;11.376;2022-12-07T00:31:12;97243.56;;;3.16
19196;BMP280;9730;48.926;11.376;2022-12-07T00:33:39;97244.44;;;3.15
19196;BMP280;9730;48.926;11.376;2022-12-07T00:36:08;97240.59;;;3.01
19196;BMP280;9730;48.926;11.376;2022-12-07T00:38:38;97231.47;;;3.00
19196;BMP280;9730;48.926;11.376;2022-12-07T00:41:06;97229.72;;;3.05
19196;BMP280;9730;48.926;11.376;2022-12-07T00:43:33;97234.84;;;2.99
19196;BMP280;9730;48.926;11.376;2022-12-07T00:46:00;97233.97;;;3.00
19196;BMP280;9730;48.926;11.376;2022-12-07T00:48:26;97243.81;;;3.06
19196;BMP280;9730;48.926;11.376;2022-12-07T00:50:53;97244.59;;;3.08
19196;BMP280;9730;48.926;11.376;2022-12-07T00:53:20;97241.97;;;3.14
19196;BMP280;9730;48.926;11.376;2022-12-07T00:55:48;97232.81;;;3.16
19196;BMP280;9730;48.926;11.376;2022-12-07T00:58:15;97241.19;;;3.12
19196;BMP280;9730;48.926;11.376;2022-12-07T01:00:42;97236.41;;;3.02
19196;BMP280;9730;48.926;11.376;2022-12-07T01:03:11;97236.34;;;3.06
19196;BMP280;9730;48.926;11.376;2022-12-07T01:05:38;97228.91;;;3.05
19196;BMP280;9730;48.926;11.376;2022-12-07T01:08:05;97230.72;;;2.97
19196;BMP280;9730;48.926;11.376;2022-12-07T01:10:32;97240.56;;;3.03
19196;BMP280;9730;48.926;11.376;2022-12-07T01:13:00;97240.63;;;3.00
19196;BMP280;9730;48.926;11.376;2022-12-07T01:15:27;97234.72;;;3.04
19196;BMP280;9730;48.926;11.376;2022-12-07T01:17:53;97246.41;;;3.00
19196;BMP280;9730;48.926;11.376;2022-12-07T01:20:21;97245.66;;;2.98
19196;BMP280;9730;48.926;11.376;2022-12-07T01:22:48;97244.94;;;2.92
19196;BMP280;9730;48.926;11.376;2022-12-07T01:25:14;97245.72;;;2.95
19196;BMP280;9730;48.926;11.376;2022-12-07T01:27:41;97237.38;;;2.96
19196;BMP280;9730;48.926;11.376;2022-12-07T01:30:10;97242.44;;;2.92
19196;BMP280;9730;48.926;11.376;2022-12-07T01:32:37;97240.38;;;2.71
19196;BMP280;9730;48.926;11.376;2022-12-07T01:35:04;97237.31;;;2.59
19196;BMP280;9730;48.926;11.376;2022-12-07T01:37:34;97227.81;;;2.77
19196;BMP280;9730;48.926;11.376;2022-12-07T01:40:01;97236.94;;;2.78
19196;BMP280;9730;48.926;11.376;2022-12-07T01:42:28;97230.09;;;2.87
19196;BMP280;9730;48.926;11.376;2022-12-07T01:48:14;97235.25;;;2.78
19196;BMP280;9730;48.926;11.376;2022-12-07T01:50:43;97224.13;;;2.55
19196;BMP280;9730;48.926;11.376;2022-12-07T01:53:10;97227.13;;;2.70
19196;BMP280;9730;48.926;11.376;2022-12-07T01:55:41;97219.53;;;2.76
19196;BMP280;9730;48.926;11.376;2022-12-07T01:58:09;97226.06;;;2.82
19196;BMP280;9730;48.926;11.376;2022-12-07T02:00:36;97228.47;;;2.85
19196;BMP280;9730;48.926;11.376;2022-12-07T02:03:06;97240.16;;;2.83
19196;BMP280;9730;48.926;11.376;2022-12-07T02:05:37;97238.59;;;2.77
19196;BMP280;9730;48.926;11.376;2022-12-07T02:08:05;97238.06;;;2.63
19196;BMP280;9730;48.926;11.376;2022-12-07T02:10:32;97236.25;;;2.70
19196;BMP280;9730;48.926;11.376;2022-12-07T02:13:03;97234.66;;;2.67
19196;BMP280;9730;48.926;11.376;2022-12-07T02:15:38;97227.13;;;2.70
19196;BMP280;9730;48.926;11.376;2022-12-07T02:18:13;97233.66;;;2.76
19196;BMP280;9730;48.926;11.376;2022-12-07T02:20:47;97222.19;;;2.69
19196;BMP280;9730;48.926;11.376;2022-12-07T02:23:38;97226.81;;;2.45
19196;BMP280;9730;48.926;11.376;2022-12-07T02:29:23;97230.88;;;2.49
19196;BMP280;9730;48.926;11.376;2022-12-07T02:31:55;97228.25;;;2.55
19196;BMP280;9730;48.926;11.376;2022-12-07T02:34:32;97234.13;;;2.54
19196;BMP280;9730;48.926;11.376;2022-12-07T02:37:03;97243.88;;;2.63
19196;BMP280;9730;48.926;11.376;2022-12-07T02:39:37;97243.66;;;2.74
19196;BMP280;9730;48.926;11.376;2022-12-07T02:42:11;97246.78;;;2.82
19196;BMP280;9730;48.926;11.376;2022-12-07T02:44:41;97243.69;;;2.71
19196;BMP280;9730;48.926;11.376;2022-12-07T02:47:12;97244.75;;;2.60
19196;BMP280;9730;48.926;11.376;2022-12-07T02:49:40;97239.75;;;2.62
19196;BMP280;9730;48.926;11.376;2022-12-07T02:52:07;97241.38;;;2.64
19196;BMP280;9730;48.926;11.376;2022-12-07T02:54:33;97243.88;;;2.63
19196;BMP280;9730;48.926;11.376;2022-12-07T02:57:10;97225.03;;;2.51
19196;BMP280;9730;48.926;11.376;2022-12-07T02:59:51;97225.09;;;2.47
19196;BMP280;9730;48.926;11.376;2022-12-07T03:02:20;97225.19;;;2.42
19196;BMP280;9730;48.926;11.376;2022-12-07T03:04:59;97217.53;;;2.53
19196;BMP280;9730;48.926;11.376;2022-12-07T03:07:33;97207.44;;;2.59
19196;BMP280;9730;48.926;11.376;2022-12-07T03:10:09;97215.66;;;2.63
19196;BMP280;9730;48.926;11.376;2022-12-07T03:12:44;97226.31;;;2.68
19196;BMP280;9730;48.926;11.376;2022-12-07T03:15:15;97232.09;;;2.70
19196;BMP280;9730;48.926;11.376;2022-12-07T03:17:46;97230.59;;;2.63
19196;BMP280;9730;48.926;11.376;2022-12-07T03:20:17;97215.66;;;2.63
19196;BMP280;9730;48.926;11.376;2022-12-07T03:22:46;97218.09;;;2.65
19196;BMP280;9730;48.926;11.376;2022-12-07T03:25:15;97223.13;;;2.63
19196;BMP280;9730;48.926;11.376;2022-12-07T03:27:45;97220.63;;;2.63
19196;BMP280;9730;48.926;11.376;2022-12-07T03:30:18;97227.13;;;2.70
19196;BMP280;9730;48.926;11.376;2022-12-07T03:32:49;97226.31;;;2.68
19196;BMP280;9730;48.926;11.376;2022-12-07T03:35:20;97227.09;;;2.72
19196;BMP280;9730;48.926;11.376;2022-12-07T03:37:51;97227.47;;;2.53
19196;BMP280;9730;48.926;11.376;2022-12-07T03:40:23;97213.44;;;2.49
19196;BMP280;9730;48.926;11.376;2022-12-07T03:42:53;97208.28;;;2.58
19196;BMP280;9730;48.926;11.376;2022-12-07T03:45:26;97207.69;;;2.45
19196;BMP280;9730;48.926;11.376;2022-12-07T03:48:03;97215.31;;;2.38
19196;BMP280;9730;48.926;11.376;2022-12-07T03:50:38;97213.72;;;2.34
19196;BMP280;9730;48.926;11.376;2022-12-07T03:53:11;97209.44;;;2.42
19196;BMP280;9730;48.926;11.376;2022-12-07T03:55:42;97209.38;;;2.45
19196;BMP280;9730;48.926;11.376;2022-12-07T03:58:12;97199.69;;;2.30
19196;BMP280;9730;48.926;11.376;2022-12-07T04:00:41;97193.91;;;2.29
19196;BMP280;9730;48.926;11.376;2022-12-07T04:03:08;97199.88;;;2.21
19196;BMP280;9730;48.926;11.376;2022-12-07T04:05:35;97193.25;;;2.20
19196;BMP280;9730;48.926;11.376;2022-12-07T04:08:03;97196.59;;;2.19
19196;BMP280;9730;48.926;11.376;2022-12-07T04:10:30;97204.28;;;2.07
19196;BMP280;9730;48.926;11.376;2022-12-07T04:12:56;97194.09;;;2.19
19196;BMP280;9730;48.926;11.376;2022-12-07T04:15:23;97196.78;;;2.09
19196;BMP280;9730;48.926;11.376;2022-12-07T04:17:51;97190.75;;;2.21
19196;BMP280;9730;48.926;11.376;2022-12-07T04:20:17;97194.78;;;2.27
19196;BMP280;9730;48.926;11.376;2022-12-07T04:22:44;97187.25;;;2.30
19196;BMP280;9730;48.926;11.376;2022-12-07T04:25:11;97189.56;;;2.40
19196;BMP280;9730;48.926;11.376;2022-12-07T04:27:37;97209.19;;;2.11
19196;BMP280;9730;48.926;11.376;2022-12-07T04:30:06;97199.00;;;2.23
19196;BMP280;9730;48.926;11.376;2022-12-07T04:32:32;97218.16;;;2.20
19196;BMP280;9730;48.926;11.376;2022-12-07T04:35:00;97208.81;;;1.86
19196;BMP280;9730;48.926;11.376;2022-12-07T04:37:27;97198.13;;;1.81
19196;BMP280;9730;48.926;11.376;2022-12-07T04:39:53;97200.50;;;1.87
19196;BMP280;9730;48.926;11.376;2022-12-07T04:42:20;97179.59;;;1.49
19196;BMP280;9730;48.926;11.376;2022-12-07T04:44:47;97178.66;;;1.56
19196;BMP280;9730;48.926;11.376;2022-12-07T04:47:13;97172.19;;;1.46
19196;BMP280;9730;48.926;11.376;2022-12-07T04:49:40;97164.88;;;1.37
19196;BMP280;9730;48.926;11.376;2022-12-07T04:52:08;97168.41;;;1.22
19196;BMP280;9730;48.926;11.376;2022-12-07T04:54:35;97161.88;;;1.17
19196;BMP280;9730;48.926;11.376;2022-12-07T04:57:01;97166.16;;;1.09
19196;BMP280;9730;48.926;11.376;2022-12-07T04:59:28;97164.88;;;0.81
19196;BMP280;9730;48.926;11.376;2022-12-07T05:01:54;97145.66;;;0.94
19196;BMP280;9730;48.926;11.376;2022-12-07T05:04:21;97138.19;;;0.97
19196;BMP280;9730;48.926;11.376;2022-12-07T05:06:48;97136.28;;;1.12
19196;BMP280;9730;48.926;11.376;2022-12-07T05:09:16;97138.63;;;1.21
19196;BMP280;9730;48.926;11.376;2022-12-07T05:11:42;97142.94;;;1.08
19196;BMP280;9730;48.926;11.376;2022-12-07T05:14:12;97137.34;;;0.96
19196;BMP280;9730;48.926;11.376;2022-12-07T05:16:39;97134.09;;;0.94
19196;BMP280;9730;48.926;11.376;2022-12-07T05:19:06;97124.38;;;0.78
19196;BMP280;9730;48.926;11.376;2022-12-07T05:21:33;97115.94;;;0.89
19196;BMP280;9730;48.926;11.376;2022-12-07T05:24:00;97128.41;;;0.86
19196;BMP280;9730;48.926;11.376;2022-12-07T05:26:28;97123.50;;;0.82
19196;BMP280;9730;48.926;11.376;2022-12-07T05:28:56;97133.50;;;0.77
19196;BMP280;9730;48.926;11.376;2022-12-07T05:31:24;97120.19;;;0.80
19196;BMP280;9730;48.926;11.376;2022-12-07T05:33:51;97134.38;;;0.73
19196;BMP280;9730;48.926;11.376;2022-12-07T05:36:18;97134.44;;;0.67
19196;BMP280;9730;48.926;11.376;2022-12-07T05:38:45;97136.19;;;0.62
19196;BMP280;9730;48.926;11.376;2022-12-07T05:41:14;97124.44;;;0.73
19196;BMP280;9730;48.926;11.376;2022-12-07T05:43:57;97130.31;;;0.69
19196;BMP280;9730;48.926;11.376;2022-12-07T05:46:23;97128.72;;;0.64
19196;BMP280;9730;48.926;11.376;2022-12-07T05:48:50;97136.91;;;0.70
19196;BMP280;9730;48.926;11.376;2022-12-07T05:51:17;97145.44;;;0.50
19196;BMP280;9730;48.926;11.376;2022-12-07T05:53:44;97152.25;;;0.36
19196;BMP280;9730;48.926;11.376;2022-12-07T05:56:10;97144.91;;;0.27
19196;BMP280;9730;48.926;11.376;2022-12-07T05:58:37;97144.25;;;0.12
19196;BMP280;9730;48.926;11.376;2022-12-07T06:01:22;97140.91;;;0.16
19196;BMP280;9730;48.926;11.376;2022-12-07T06:03:49;97147.59;;;0.09
19196;BMP280;9730;48.926;11.376;2022-12-07T06:06:16;97136.91;;;0.06
19196;BMP280;9730;48.926;11.376;2022-12-07T06:08:42;97139.38;;;0.07
19196;BMP280;9730;48.926;11.376;2022-12-07T06:11:09;97139.53;;;-0.07
19196;BMP280;9730;48.926;11.376;2022-12-07T06:13:53;97123.06;;;-0.14
19196;BMP280;9730;48.926;11.376;2022-12-07T06:16:20;97132.13;;;-0.12
19196;BMP280;9730;48.926;11.376;2022-12-07T06:18:47;97129.63;;;-0.09
19196;BMP280;9730;48.926;11.376;2022-12-07T06:21:14;97128.88;;;-0.17
19196;BMP280;9730;48.926;11.376;2022-12-07T06:23:41;97134.69;;;-0.21
19196;BMP280;9730;48.926;11.376;2022-12-07T06:26:07;97130.69;;;-0.31
19196;BMP280;9730;48.926;11.376;2022-12-07T06:28:34;97127.25;;;-0.18
19196;BMP280;9730;48.926;11.376;2022-12-07T06:31:01;97129.59;;;-0.06
19196;BMP280;9730;48.926;11.376;2022-12-07T06:33:28;97128.91;;;-0.18
19196;BMP280;9730;48.926;11.376;2022-12-07T06:35:56;97133.25;;;-0.40
19196;BMP280;9730;48.926;11.376;2022-12-07T06:38:23;97127.38;;;-0.31
19196;BMP280;9730;48.926;11.376;2022-12-07T06:40:50;97133.88;;;-0.20
19196;BMP280;9730;48.926;11.376;2022-12-07T06:43:16;97127.22;;;-0.15
19196;BMP280;9730;48.926;11.376;2022-12-07T06:45:43;97123.09;;;-0.16
19196;BMP280;9730;48.926;11.376;2022-12-07T06:48:09;97129.69;;;-0.13
19196;BMP280;9730;48.926;11.376;2022-12-07T06:50:36;97118.84;;;-0.05
19196;BMP280;9730;48.926;11.376;2022-12-07T06:53:03;97126.19;;;0.02
19196;BMP280;9730;48.926;11.376;2022-12-07T06:55:30;97117.78;;;0.12
19196;BMP280;9730;48.926;11.376;2022-12-07T06:57:57;97136.66;;;0.27
19196;BMP280;9730;48.926;11.376;2022-12-07T07:00:23;97119.19;;;0.33
19196;BMP280;9730;48.926;11.376;2022-12-07T07:02:50;97119.94;;;0.41
19196;BMP280;9730;48.926;11.376;2022-12-07T07:05:16;97116.56;;;0.46
19196;BMP280;9730;48.926;11.376;2022-12-07T07:07:43;97123.00;;;0.57
19196;BMP280;9730;48.926;11.376;2022-12-07T07:10:11;97133.22;;;0.37
19196;BMP280;9730;48.926;11.376;2022-12-07T07:12:38;97141.72;;;0.16
19196;BMP280;9730;48.926;11.376;2022-12-07T07:15:05;97128.38;;;0.28
19196;BMP280;9730;48.926;11.376;2022-12-07T07:17:32;97144.16;;;0.22
19196;BMP280;9730;48.926;11.376;2022-12-07T07:19:58;97133.09;;;0.44
19196;BMP280;9730;48.926;11.376;2022-12-07T07:22:25;97132.53;;;0.24
19196;BMP280;9730;48.926;11.376;2022-12-07T07:24:52;97141.25;;;0.55
19196;BMP280;9730;48.926;11.376;2022-12-07T07:27:19;97140.47;;;0.52
19196;BMP280;9730;48.926;11.376;2022-12-07T07:29:46;97141.22;;;0.56
19196;BMP280;9730;48.926;11.376;2022-12-07T07:32:12;97138.91;;;0.45
19196;BMP280;9730;48.926;11.376;2022-12-07T07:34:39;97146.25;;;0.51
19196;BMP280;9730;48.926;11.376;2022-12-07T07:37:05;97151.84;;;0.66
19196;BMP280;9730;48.926;11.376;2022-12-07T07:39:32;97154.31;;;0.67
19196;BMP280;9730;48.926;11.376;2022-12-07T07:41:59;97162.63;;;0.66
19196;BMP280;9730;48.926;11.376;2022-12-07T07:44:27;97162.56;;;0.69
19196;BMP280;9730;48.926;11.376;2022-12-07T07:46:54;97158.47;;;0.65
19196;BMP280;9730;48.926;11.376;2022-12-07T07:49:21;97166.69;;;0.69
19196;BMP280;9730;48.926;11.376;2022-12-07T07:51:47;97167.34;;;0.84
19196;BMP280;9730;48.926;11.376;2022-12-07T07:54:14;97159.59;;;1.04
19196;BMP280;9730;48.926;11.376;2022-12-07T07:56:40;97162.66;;;1.20
19196;BMP280;9730;48.926;11.376;2022-12-07T07:59:07;97174.09;;;1.30
19196;BMP280;9730;48.926;11.376;2022-12-07T08:01:35;97183.28;;;1.27
19196;BMP280;9730;48.926;11.376;2022-12-07T08:04:01;97180.06;;;1.20
19196;BMP280;9730;48.926;11.376;2022-12-07T08:06:28;97179.94;;;1.26
19196;BMP280;9730;48.926;11.376;2022-12-07T08:08:54;97186.69;;;1.18
19196;BMP280;9730;48.926;11.376;2022-12-07T08:11:23;97195.91;;;1.12
19196;BMP280;9730;48.926;11.376;2022-12-07T08:13:49;97198.41;;;1.12
19196;BMP280;9730;48.926;11.376;2022-12-07T08:16:16;97203.16;;;1.27
19196;BMP280;9730;48.926;11.376;2022-12-07T08:18:44;97200.50;;;1.36
19196;BMP280;9730;48.926;11.376;2022-12-07T08:21:13;97208.63;;;1.47
19196;BMP280;9730;48.926;11.376;2022-12-07T08:23:40;97210.84;;;1.64
19196;BMP280;9730;48.926;11.376;2022-12-07T08:26:08;97222.31;;;1.71
19196;BMP280;9730;48.926;11.376;2022-12-07T08:28:35;97234.72;;;1.73
19196;BMP280;9730;48.926;11.376;2022-12-07T08:31:03;97234.94;;;1.59
19196;BMP280;9730;48.926;11.376;2022-12-07T08:33:30;97238.13;;;1.67
19196;BMP280;9730;48.926;11.376;2022-12-07T08:36:01;97243.94;;;1.66
19196;BMP280;9730;48.926;11.376;2022-12-07T08:38:28;97247.25;;;1.68
19196;BMP280;9730;48.926;11.376;2022-12-07T08:40:55;97248.06;;;1.67
19196;BMP280;9730;48.926;11.376;2022-12-07T08:43:22;97235.06;;;1.52
19196;BMP280;9730;48.926;11.376;2022-12-07T08:45:51;97248.44;;;1.45
19196;BMP280;9730;48.926;11.376;2022-12-07T08:48:20;97243.84;;;1.74
19196;BMP280;9730;48.926;11.376;2022-12-07T08:50:50;97246.66;;;2.01
19196;BMP280;9730;48.926;11.376;2022-12-07T08:53:18;97247.16;;;1.73
19196;BMP280;9730;48.926;11.376;2022-12-07T08:55:46;97251.53;;;2.09
19196;BMP280;9730;48.926;11.376;2022-12-07T08:58:13;97252.25;;;2.13
19196;BMP280;9730;48.926;11.376;2022-12-07T09:00:40;97262.09;;;2.21
19196;BMP280;9730;48.926;11.376;2022-12-07T09:03:06;97270.75;;;2.01
19196;BMP280;9730;48.926;11.376;2022-12-07T09:05:33;97255.31;;;1.82
19196;BMP280;9730;48.926;11.376;2022-12-07T09:08:01;97255.50;;;2.18
19196;BMP280;9730;48.926;11.376;2022-12-07T09:10:29;97264.13;;;2.46
19196;BMP280;9730;48.926;11.376;2022-12-07T09:12:55;97259.81;;;2.54
19196;BMP280;9730;48.926;11.376;2022-12-07T09:15:25;97277.38;;;2.47
19196;BMP280;9730;48.926;11.376;2022-12-07T09:17:52;97277.00;;;2.67
19196;BMP280;9730;48.926;11.376;2022-12-07T09:20:19;97277.59;;;2.80
19196;BMP280;9730;48.926;11.376;2022-12-07T09:22:46;97283.28;;;2.85
19196;BMP280;9730;48.926;11.376;2022-12-07T09:25:12;97284.88;;;2.89
19196;BMP280;9730;48.926;11.376;2022-12-07T09:27:40;97280.56;;;2.97
19196;BMP280;9730;48.926;11.376;2022-12-07T09:30:07;97282.69;;;3.15
19196;BMP280;9730;48.926;11.376;2022-12-07T09:32:34;97300.81;;;3.21
19196;BMP280;9730;48.926;11.376;2022-12-07T09:35:00;97321.13;;;3.05
19196;BMP280;9730;48.926;11.376;2022-12-07T09:37:27;97317.34;;;3.25
19196;BMP280;9730;48.926;11.376;2022-12-07T09:39:54;97323.38;;;3.15
19196;BMP280;9730;48.926;11.376;2022-12-07T09:42:27;97329.19;;;3.14
19196;BMP280;9730;48.926;11.376;2022-12-07T09:44:56;97320.88;;;3.15
19196;BMP280;9730;48.926;11.376;2022-12-07T09:47:23;97310.00;;;3.19
19196;BMP280;9730;48.926;11.376;2022-12-07T09:49:50;97301.19;;;3.42
19196;BMP280;9730;48.926;11.376;2022-12-07T09:52:19;97302.84;;;3.42
19196;BMP280;9730;48.926;11.376;2022-12-07T09:54:50;97300.72;;;3.63
19196;BMP280;9730;48.926;11.376;2022-12-07T09:57:17;97287.81;;;3.82
19196;BMP280;9730;48.926;11.376;2022-12-07T09:59:44;97294.97;;;4.29
19196;BMP280;9730;48.926;11.376;2022-12-07T10:02:32;97290.34;;;4.14
19196;BMP280;9730;48.926;11.376;2022-12-07T10:05:00;97283.03;;;4.08
19196;BMP280;9730;48.926;11.376;2022-12-07T10:07:27;97279.41;;;4.20
19196;BMP280;9730;48.926;11.376;2022-12-07T10:09:54;97270.06;;;3.94
19196;BMP280;9730;48.926;11.376;2022-12-07T10:12:20;97247.06;;;3.46
19196;BMP280;9730;48.926;11.376;2022-12-07T10:14:54;97240.44;;;3.46
19196;BMP280;9730;48.926;11.376;2022-12-07T10:17:37;97243.63;;;3.51
19196;BMP280;9730;48.926;11.376;2022-12-07T10:20:24;97234.00;;;3.36
19196;BMP280;9730;48.926;11.376;2022-12-07T10:23:02;97230.16;;;3.22
19196;BMP280;9730;48.926;11.376;2022-12-07T10:25:32;97214.69;;;3.44
19196;BMP280;9730;48.926;11.376;2022-12-07T10:28:01;97220.34;;;3.52
19196;BMP280;9730;48.926;11.376;2022-12-07T10:30:28;97219.22;;;3.64
19196;BMP280;9730;48.926;11.376;2022-12-07T10:32:57;97224.66;;;3.79
19196;BMP280;9730;48.926;11.376;2022-12-07T10:35:25;97216.94;;;3.89
19196;BMP280;9730;48.926;11.376;2022-12-07T10:37:53;97203.31;;;4.01
19196;BMP280;9730;48.926;11.376;2022-12-07T10:40:27;97200.09;;;3.97
19196;BMP280;9730;48.926;11.376;2022-12-07T10:43:02;97202.00;;;3.88
19196;BMP280;9730;48.926;11.376;2022-12-07T10:45:28;97203.69;;;3.87
19196;BMP280;9730;48.926;11.376;2022-12-07T10:48:02;97201.34;;;4.13
19196;BMP280;9730;48.926;11.376;2022-12-07T10:50:49;97203.16;;;4.38
19196;BMP280;9730;48.926;11.376;2022-12-07T10:53:44;97192.69;;;4.24
19196;BMP280;9730;48.926;11.376;2022-12-07T10:56:30;97175.13;;;4.29
19196;BMP280;9730;48.926;11.376;2022-12-07T10:59:13;97172.09;;;4.48
19196;BMP280;9730;48.926;11.376;2022-12-07T11:01:50;97175.66;;;4.69
19196;BMP280;9730;48.926;11.376;2022-12-07T11:04:31;97166.97;;;4.81
19196;BMP280;9730;48.926;11.376;2022-12-07T11:07:02;97148.69;;;4.79
19196;BMP280;9730;48.926;11.376;2022-12-07T11:09:50;97147.88;;;5.06
19196;BMP280;9730;48.926;11.376;2022-12-07T11:12:26;97148.72;;;4.49
19196;BMP280;9730;48.926;11.376;2022-12-07T11:14:59;97136.09;;;4.55
19196;BMP280;9730;48.926;11.376;2022-12-07T11:17:35;97121.09;;;4.55
19196;BMP280;9730;48.926;11.376;2022-12-07T11:20:27;97119.63;;;4.77
19196;BMP280;9730;48.926;11.376;2022-12-07T11:23:03;97114.94;;;4.67
19196;BMP280;9730;48.926;11.376;2022-12-07T11:25:32;97112.75;;;4.83
19196;BMP280;9730;48.926;11.376;2022-12-07T11:28:10;97099.69;;;4.74
19196;BMP280;9730;48.926;11.376;2022-12-07T11:30:45;97094.44;;;4.83
19196;BMP280;9730;48.926;11.376;2022-12-07T11:33:19;97087.00;;;4.81
19196;BMP280;9730;48.926;11.376;2022-12-07T11:35:57;97089.25;;;4.89
19196;BMP280;9730;48.926;11.376;2022-12-07T11:38:35;97085.56;;;5.00
19196;BMP280;9730;48.926;11.376;2022-12-07T11:41:05;97082.53;;;5.17
19196;BMP280;9730;48.926;11.376;2022-12-07T11:43:49;97090.56;;;5.26
19196;BMP280;9730;48.926;11.376;2022-12-07T11:46:17;97069.13;;;5.19
19196;BMP280;9730;48.926;11.376;2022-12-07T11:48:47;97068.53;;;5.11
19196;BMP280;9730;48.926;11.376;2022-12-07T11:51:19;97053.13;;;4.73
19196;BMP280;9730;48.926;11.376;2022-12-07T11:53:50;97062.09;;;5.04
19196;BMP280;9730;48.926;11.376;2022-12-07T11:56:20;97060.03;;;5.17
19196;BMP280;9730;48.926;11.376;2022-12-07T11:58:49;97044.75;;;5.26
19196;BMP280;9730;48.926;11.376;2022-12-07T12:01:35;97041.03;;;5.11
19196;BMP280;9730;48.926;11.376;2022-12-07T12:04:06;97041.56;;;5.21
19196;BMP280;9730;48.926;11.376;2022-12-07T12:06:34;97041.94;;;5.34
19196;BMP280;9730;48.926;11.376;2022-12-07T12:09:05;97035.16;;;5.38
19196;BMP280;9730;48.926;11.376;2022-12-07T12:11:44;97025.16;;;5.38
19196;BMP280;9730;48.926;11.376;2022-12-07T12:14:26;97026.13;;;5.34
19196;BMP280;9730;48.926;11.376;2022-12-07T12:19:59;97012.84;;;5.32
19196;BMP280;9730;48.926;11.376;2022-12-07T12:22:32;97003.56;;;5.35
19196;BMP280;9730;48.926;11.376;2022-12-07T12:25:04;97003.50;;;5.37
19196;BMP280;9730;48.926;11.376;2022-12-07T12:27:33;96998.41;;;5.40
19196;BMP280;9730;48.926;11.376;2022-12-07T12:30:01;96998.88;;;5.51
19196;BMP280;9730;48.926;11.376;2022-12-07T12:32:36;96996.56;;;5.45
19196;BMP280;9730;48.926;11.376;2022-12-07T12:35:29;96995.16;;;5.38
19196;BMP280;9730;48.926;11.376;2022-12-07T12:38:25;96989.88;;;5.45
19196;BMP280;9730;48.926;11.376;2022-12-07T12:40:52;96986.69;;;5.42
19196;BMP280;9730;48.926;11.376;2022-12-07T12:43:41;96988.91;;;5.25
19196;BMP280;9730;48.926;11.376;2022-12-07T12:46:37;96981.13;;;5.34
19196;BMP280;9730;48.926;11.376;2022-12-07T12:49:34;96988.56;;;5.35
19196;BMP280;9730;48.926;11.376;2022-12-07T12:55:22;96980.84;;;5.41
19196;BMP280;9730;48.926;11.376;2022-12-07T13:03:55;96967.81;;;5.33
19196;BMP280;9730;48.926;11.376;2022-12-07T13:06:34;96969.97;;;5.42
19196;BMP280;9730;48.926;11.376;2022-12-07T13:09:03;96954.63;;;5.28
19196;BMP280;9730;48.926;11.376;2022-12-07T13:11:33;96961.28;;;5.29
19196;BMP280;9730;48.926;11.376;2022-12-07T13:14:39;96962.19;;;5.27
19196;BMP280;9730;48.926;11.376;2022-12-07T13:17:08;96959.47;;;5.33
19196;BMP280;9730;48.926;11.376;2022-12-07T13:19:59;96965.31;;;5.33
19196;BMP280;9730;48.926;11.376;2022-12-07T13:22:51;96958.72;;;5.31
19196;BMP280;9730;48.926;11.376;2022-12-07T13:25:26;96955.59;;;5.25
19196;BMP280;9730;48.926;11.376;2022-12-07T13:28:02;96947.78;;;5.09
19196;BMP280;9730;48.926;11.376;2022-12-07T13:30:43;96956.94;;;5.10
19196;BMP280;9730;48.926;11.376;2022-12-07T13:33:12;96959.72;;;5.01
19196;BMP280;9730;48.926;11.376;2022-12-07T13:35:39;96949.84;;;4.98
19196;BMP280;9730;48.926;11.376;2022-12-07T13:38:17;96950.59;;;5.00
19196;BMP280;9730;48.926;11.376;2022-12-07T13:40:59;96957.66;;;4.89
19196;BMP280;9730;48.926;11.376;2022-12-07T13:43:27;96962.31;;;4.98
19196;BMP280;9730;48.926;11.376;2022-12-07T13:45:56;96966.38;;;5.02
19196;BMP280;9730;48.926;11.376;2022-12-07T13:48:29;96972.91;;;5.06
19196;BMP280;9730;48.926;11.376;2022-12-07T13:50:58;96972.22;;;5.01
19196;BMP280;9730;48.926;11.376;2022-12-07T13:53:26;96966.56;;;4.96
19196;BMP280;9730;48.926;11.376;2022-12-07T13:55:56;96960.22;;;4.86
19196;BMP280;9730;48.926;11.376;2022-12-07T13:58:22;96967.44;;;4.70
19196;BMP280;9730;48.926;11.376;2022-12-07T14:00:51;96979.44;;;4.59
19196;BMP280;9730;48.926;11.376;2022-12-07T14:03:27;96976.38;;;4.51
19196;BMP280;9730;48.926;11.376;2022-12-07T14:06:10;96980.88;;;4.66
19196;BMP280;9730;48.926;11.376;2022-12-07T14:08:38;96986.88;;;4.60
19196;BMP280;9730;48.926;11.376;2022-12-07T14:11:05;96989.88;;;4.71
19196;BMP280;9730;48.926;11.376;2022-12-07T14:13:34;96996.34;;;4.76
19196;BMP280;9730;48.926;11.376;2022-12-07T14:16:18;96998.75;;;4.79
19196;BMP280;9730;48.926;11.376;2022-12-07T14:18:48;97008.38;;;4.91
19196;BMP280;9730;48.926;11.376;2022-12-07T14:21:16;97010.97;;;4.88
19196;BMP280;9730;48.926;11.376;2022-12-07T14:23:44;97009.34;;;4.87
19196;BMP280;9730;48.926;11.376;2022-12-07T14:26:12;97004.63;;;4.78
19196;BMP280;9730;48.926;11.376;2022-12-07T14:28:40;97006.72;;;4.90
19196;BMP280;9730;48.926;11.376;2022-12-07T14:31:12;97018.56;;;4.85
19196;BMP280;9730;48.926;11.376;2022-12-07T14:33:39;97011.25;;;4.79
19196;BMP280;9730;48.926;11.376;2022-12-07T14:36:08;97007.69;;;4.86
19196;BMP280;9730;48.926;11.376;2022-12-07T14:38:35;97009.50;;;4.83
19196;BMP280;9730;48.926;11.376;2022-12-07T14:41:02;97004.91;;;4.70
19196;BMP280;9730;48.926;11.376;2022-12-07T14:43:43;96999.81;;;4.47
19196;BMP280;9730;48.926;11.376;2022-12-07T14:46:11;97007.69;;;4.61
19196;BMP280;9730;48.926;11.376;2022-12-07T14:48:38;97012.09;;;4.53
19196;BMP280;9730;48.926;11.376;2022-12-07T14:51:04;97007.25;;;4.48
19196;BMP280;9730;48.926;11.376;2022-12-07T14:53:35;96998.88;;;4.49
19196;BMP280;9730;48.926;11.376;2022-12-07T14:56:03;97009.81;;;4.47
19196;BMP280;9730;48.926;11.376;2022-12-07T14:58:31;97013.09;;;4.47